createdAt,value
2024-01-15T00:01:53.560Z,7.10
2024-01-15T00:04:55.584Z,7.13
2024-01-15T00:07:57.237Z,7.57
2024-01-15T00:10:59.131Z,7.38
2024-01-15T00:14:00.933Z,5.68
2024-01-15T00:17:02.878Z,5.88
2024-01-15T00:20:05.172Z,6.50
2024-01-15T00:23:07.004Z,6.10
2024-01-15T00:26:10.637Z,6.85
2024-01-15T00:29:13.538Z,7.60
2024-01-15T00:32:15.509Z,6.50
2024-01-15T00:35:17.369Z,7.05
2024-01-15T00:38:19.172Z,7.22
2024-01-15T00:41:21.052Z,5.72
2024-01-15T00:44:22.923Z,5.63
2024-01-15T00:47:24.772Z,6.00
2024-01-15T00:50:26.508Z,5.47
2024-01-15T00:53:28.349Z,6.20
2024-01-15T00:56:29.999Z,6.35
2024-01-15T00:59:31.837Z,5.85
2024-01-15T01:02:33.661Z,5.10
2024-01-15T01:05:36.057Z,5.40
2024-01-15T01:08:37.820Z,4.90
2024-01-15T01:11:39.569Z,5.63
2024-01-15T01:14:41.442Z,5.20
2024-01-15T01:17:43.276Z,5.15
2024-01-15T01:20:45.316Z,4.60
2024-01-15T01:23:47.252Z,5.80
2024-01-15T01:26:49.088Z,5.10
2024-01-15T01:29:50.862Z,5.07
2024-01-15T01:32:52.632Z,4.95
2024-01-15T01:35:54.491Z,4.47
2024-01-15T01:38:56.381Z,5.90
2024-01-15T01:41:58.054Z,5.05
2024-01-15T01:44:59.845Z,5.18
2024-01-15T01:48:02.890Z,5.03
2024-01-15T01:51:05.959Z,4.85
2024-01-15T01:54:10.572Z,4.47
2024-01-15T01:57:13.866Z,5.13
2024-01-15T02:00:16.076Z,4.55
2024-01-15T02:03:17.995Z,5.60
2024-01-15T02:06:20.375Z,5.07
2024-01-15T02:09:22.527Z,5.38
2024-01-15T02:12:24.344Z,4.43
2024-01-15T02:15:26.177Z,4.82
2024-01-15T02:18:28.136Z,4.82
2024-01-15T02:21:30.251Z,6.13
2024-01-15T02:24:32.445Z,6.82
2024-01-15T02:27:34.300Z,5.75
2024-01-15T02:30:40.747Z,6.03
2024-01-15T02:33:43.813Z,5.82
2024-01-15T02:36:45.828Z,6.50
2024-01-15T02:39:47.713Z,6.05
2024-01-15T02:42:49.709Z,5.70
2024-01-15T02:45:51.531Z,6.90
2024-01-15T02:48:53.496Z,6.78
2024-01-15T02:51:55.343Z,8.30
2024-01-15T02:54:57.198Z,7.15
2024-01-15T02:58:00.608Z,6.40
2024-01-15T03:01:02.697Z,6.75
2024-01-15T03:04:04.991Z,7.63
2024-01-15T03:07:07.076Z,6.95
2024-01-15T03:10:09.407Z,7.80
2024-01-15T03:13:11.232Z,6.80
2024-01-15T03:16:13.052Z,7.35
2024-01-15T03:19:14.934Z,6.65
2024-01-15T03:22:17.558Z,7.18
2024-01-15T03:25:19.410Z,7.13
2024-01-15T03:28:21.198Z,6.47
2024-01-15T03:31:23.012Z,7.95
2024-01-15T03:34:24.815Z,7.97
2024-01-15T03:37:26.628Z,7.93
2024-01-15T03:40:28.532Z,7.65
2024-01-15T03:43:30.430Z,8.05
2024-01-15T03:46:32.390Z,8.60
2024-01-15T03:49:34.252Z,8.50
2024-01-15T03:52:36.116Z,7.35
2024-01-15T03:55:37.903Z,8.23
2024-01-15T03:58:39.957Z,8.20
2024-01-15T04:01:41.945Z,7.68
2024-01-15T04:04:45.374Z,7.50
2024-01-15T04:07:47.390Z,7.78
2024-01-15T04:10:49.320Z,7.20
2024-01-15T04:13:51.286Z,7.32
2024-01-15T04:16:53.171Z,5.38
2024-01-15T04:19:54.969Z,5.43
2024-01-15T04:22:56.932Z,5.43
2024-01-15T04:25:58.593Z,6.78
2024-01-15T04:29:00.778Z,5.50
2024-01-15T04:32:02.713Z,5.60
2024-01-15T04:35:04.894Z,5.47
2024-01-15T04:38:06.617Z,5.57
2024-01-15T04:41:14.436Z,5.80
2024-01-15T04:44:16.470Z,4.88
2024-01-15T04:47:18.316Z,4.78
2024-01-15T04:50:20.029Z,5.18
2024-01-15T04:53:21.807Z,5.80
2024-01-15T04:56:23.676Z,5.68
2024-01-15T04:59:25.540Z,5.63
2024-01-15T05:02:27.308Z,5.75
2024-01-15T05:05:29.042Z,4.88
2024-01-15T05:08:30.950Z,5.10
2024-01-15T05:11:35.808Z,4.40
2024-01-15T05:14:37.765Z,4.32
2024-01-15T05:17:39.892Z,5.53
2024-01-15T05:20:41.785Z,5.60
2024-01-15T05:23:43.522Z,5.25
2024-01-15T05:26:45.198Z,5.45
2024-01-15T05:29:47.011Z,5.40
2024-01-15T05:32:48.968Z,5.45
2024-01-15T05:35:51.571Z,4.50
2024-01-15T05:38:53.699Z,4.93
2024-01-15T05:41:55.433Z,4.97
2024-01-15T05:44:57.385Z,5.32
2024-01-15T05:47:59.892Z,5.43
2024-01-15T05:51:01.642Z,5.60
2024-01-15T05:54:03.446Z,4.88
2024-01-15T05:57:05.462Z,4.50
2024-01-15T06:00:07.970Z,4.07
2024-01-15T06:03:09.843Z,5.13
2024-01-15T06:06:11.691Z,4.68
2024-01-15T06:09:13.671Z,4.97
2024-01-15T06:12:15.527Z,4.60
2024-01-15T06:15:17.302Z,4.35
2024-01-15T06:18:19.138Z,4.07
2024-01-15T06:21:21.036Z,4.88
2024-01-15T06:24:22.817Z,3.97
2024-01-15T06:27:24.674Z,4.53
2024-01-15T06:30:26.571Z,5.03
2024-01-15T06:33:28.464Z,5.50
2024-01-15T06:36:30.441Z,4.45
2024-01-15T06:39:32.669Z,4.00
2024-01-15T06:42:34.531Z,3.72
2024-01-15T06:45:36.290Z,3.75
2024-01-15T06:48:38.358Z,4.00
2024-01-15T06:51:40.476Z,4.10
2024-01-15T06:54:42.490Z,3.38
2024-01-15T06:57:44.439Z,3.40
2024-01-15T07:00:46.529Z,3.45
2024-01-15T07:03:48.443Z,3.30
2024-01-15T07:06:50.351Z,2.78
2024-01-15T07:09:53.405Z,2.70
2024-01-15T07:12:55.418Z,3.30
2024-01-15T07:15:57.592Z,2.78
2024-01-15T07:18:59.439Z,2.67
2024-01-15T07:22:01.515Z,2.83
2024-01-15T07:25:03.546Z,2.88
2024-01-15T07:28:05.704Z,2.38
2024-01-15T07:31:07.760Z,2.92
2024-01-15T07:34:10.010Z,3.20
2024-01-15T07:37:12.870Z,2.90
2024-01-15T07:40:14.772Z,3.20
2024-01-15T07:43:16.868Z,3.05
2024-01-15T07:46:18.599Z,3.42
2024-01-15T07:49:20.418Z,3.53
2024-01-15T07:52:22.395Z,3.10
2024-01-15T07:55:24.961Z,2.70
2024-01-15T07:58:26.893Z,2.60
2024-01-15T08:01:28.857Z,3.17
2024-01-15T08:04:30.877Z,2.50
2024-01-15T08:07:32.707Z,2.90
2024-01-15T08:10:34.302Z,3.00
2024-01-15T08:13:36.024Z,3.67
2024-01-15T08:16:38.865Z,3.65
2024-01-15T08:19:42.543Z,4.00
2024-01-15T08:22:44.352Z,3.70
2024-01-15T08:25:46.104Z,3.15
2024-01-15T08:28:47.833Z,3.53
2024-01-15T08:31:49.818Z,3.35
2024-01-15T08:34:53.479Z,2.60
2024-01-15T08:37:55.340Z,3.60
2024-01-15T08:40:59.991Z,3.20
2024-01-15T08:44:01.729Z,3.58
2024-01-15T08:47:04.164Z,4.22
2024-01-15T08:50:06.765Z,4.10
2024-01-15T08:53:08.450Z,4.07
2024-01-15T08:56:10.227Z,4.53
2024-01-15T08:59:12.453Z,5.18
2024-01-15T09:02:14.211Z,4.50
2024-01-15T09:05:16.351Z,5.10
2024-01-15T09:08:18.208Z,4.45
2024-01-15T09:11:19.930Z,5.53
2024-01-15T09:14:32.989Z,4.93
2024-01-15T09:17:38.596Z,5.07
2024-01-15T09:20:40.475Z,4.80
2024-01-15T09:23:42.251Z,4.57
2024-01-15T09:26:43.991Z,5.32
2024-01-15T09:29:47.410Z,6.97
2024-01-15T09:32:49.817Z,5.95
2024-01-15T09:35:51.603Z,7.35
2024-01-15T09:38:53.319Z,7.72
2024-01-15T09:41:55.694Z,7.72
2024-01-15T09:44:57.414Z,6.95
2024-01-15T09:47:59.198Z,6.35
2024-01-15T09:51:02.747Z,6.93
2024-01-15T09:54:05.261Z,7.68
2024-01-15T09:57:07.423Z,6.80
2024-01-15T10:00:12.469Z,6.10
2024-01-15T10:03:14.877Z,5.00
2024-01-15T10:06:22.291Z,5.82
2024-01-15T10:09:24.918Z,5.40
2024-01-15T10:12:28.524Z,5.80
2024-01-15T10:15:30.561Z,5.43
2024-01-15T10:18:32.439Z,5.75
2024-01-15T10:21:37.441Z,6.20
2024-01-15T10:24:39.907Z,5.88
2024-01-15T10:27:45.477Z,6.35
2024-01-15T10:30:47.341Z,6.00
2024-01-15T10:33:50.241Z,5.53
2024-01-15T10:36:56.840Z,5.25
2024-01-15T10:39:58.993Z,6.93
2024-01-15T10:43:00.881Z,7.13
2024-01-15T10:46:03.802Z,6.15
2024-01-15T10:49:06.104Z,4.93
2024-01-15T10:52:07.922Z,5.38
2024-01-15T10:55:14.605Z,5.10
2024-01-15T10:58:19.812Z,4.72
2024-01-15T11:01:22.150Z,6.15
2024-01-15T11:04:25.305Z,4.43
2024-01-15T11:07:29.345Z,5.70
2024-01-15T11:10:47.553Z,4.13
2024-01-15T11:13:52.729Z,5.78
2024-01-15T11:17:02.308Z,4.78
2024-01-15T11:20:07.967Z,5.00
2024-01-15T11:23:10.902Z,4.90
2024-01-15T11:26:32.094Z,4.45
2024-01-15T11:29:38.439Z,4.57
2024-01-15T11:32:44.288Z,5.78
2024-01-15T11:35:50.575Z,4.90
2024-01-15T11:38:52.244Z,4.50
2024-01-15T11:42:02.442Z,4.97
2024-01-15T11:45:05.667Z,4.70
2024-01-15T11:48:13.271Z,3.85
2024-01-15T11:51:19.498Z,3.50
2024-01-15T11:54:25.149Z,5.00
2024-01-15T11:57:50.725Z,4.25
2024-01-15T12:00:54.149Z,4.88
2024-01-15T12:03:56.310Z,4.57
2024-01-15T12:06:58.286Z,4.30
2024-01-15T12:10:00.193Z,4.25
2024-01-15T12:13:07.741Z,4.78
2024-01-15T12:16:09.671Z,4.75
2024-01-15T12:19:11.647Z,4.53
2024-01-15T12:22:13.382Z,4.82
2024-01-15T12:25:15.206Z,4.63
2024-01-15T12:28:17.144Z,3.90
2024-01-15T12:31:20.502Z,3.88
2024-01-15T12:34:22.427Z,3.53
2024-01-15T12:37:26.297Z,3.10
2024-01-15T12:40:29.133Z,4.10
2024-01-15T12:43:30.894Z,3.20
2024-01-15T12:46:32.795Z,3.88
2024-01-15T12:49:36.963Z,4.00
2024-01-15T12:52:40.918Z,4.22
2024-01-15T12:55:42.641Z,4.18
2024-01-15T12:58:44.287Z,3.47
2024-01-15T13:01:47.730Z,3.72
2024-01-15T13:04:49.626Z,3.33
2024-01-15T13:07:51.366Z,2.78
2024-01-15T13:10:57.173Z,2.95
2024-01-15T13:13:59.044Z,3.70
2024-01-15T13:17:00.859Z,3.53
2024-01-15T13:20:03.621Z,3.80
2024-01-15T13:23:05.543Z,2.97
2024-01-15T13:26:08.166Z,3.67
2024-01-15T13:29:09.813Z,3.63
2024-01-15T13:32:17.997Z,4.05
2024-01-15T13:35:19.681Z,3.50
2024-01-15T13:38:21.324Z,3.17
2024-01-15T13:41:26.266Z,3.83
2024-01-15T13:44:28.785Z,3.08
2024-01-15T13:47:30.439Z,3.13
2024-01-15T13:50:41.142Z,3.00
2024-01-15T13:53:42.850Z,3.85
2024-01-15T13:56:44.686Z,3.30
2024-01-15T13:59:46.797Z,3.63
2024-01-15T14:02:49.150Z,3.90
2024-01-15T14:05:52.182Z,2.60
2024-01-15T14:08:53.837Z,3.03
2024-01-15T14:11:55.813Z,2.60
2024-01-15T14:14:57.566Z,3.50
2024-01-15T14:18:00.196Z,3.50
2024-01-15T14:21:01.961Z,2.58
2024-01-15T14:24:05.576Z,2.70
2024-01-15T14:27:08.321Z,2.60
2024-01-15T14:30:10.784Z,3.17
2024-01-15T14:33:12.652Z,2.50
2024-01-15T14:36:14.589Z,2.80
2024-01-15T14:39:16.415Z,3.22
2024-01-15T14:42:18.139Z,2.58
2024-01-15T14:45:20.347Z,2.83
2024-01-15T14:48:22.169Z,2.63
2024-01-15T14:51:23.955Z,4.10
2024-01-15T14:54:25.903Z,2.80
2024-01-15T14:57:27.752Z,2.70
2024-01-15T15:00:29.524Z,2.60
2024-01-15T15:03:31.544Z,2.65
2024-01-15T15:06:33.820Z,3.33
2024-01-15T15:09:35.767Z,2.65
2024-01-15T15:12:37.661Z,3.33
2024-01-15T15:15:39.447Z,2.55
2024-01-15T15:18:41.234Z,2.78
2024-01-15T15:21:43.102Z,2.65
2024-01-15T15:24:45.337Z,2.55
2024-01-15T15:27:47.147Z,3.65
2024-01-15T15:30:48.888Z,2.53
2024-01-15T15:33:50.853Z,3.28
2024-01-15T15:36:52.776Z,2.50
2024-01-15T15:39:54.527Z,2.90
2024-01-15T15:42:56.423Z,2.47
2024-01-15T15:46:01.482Z,2.80
2024-01-15T15:49:07.836Z,2.90
2024-01-15T15:52:09.961Z,2.90
2024-01-15T15:55:11.753Z,3.20
2024-01-15T15:58:13.507Z,4.03
2024-01-15T16:01:15.372Z,3.33
2024-01-15T16:04:17.316Z,3.10
2024-01-15T16:07:19.166Z,3.05
2024-01-15T16:10:20.971Z,3.13
2024-01-15T16:13:22.756Z,3.53
2024-01-15T16:23:10.982Z,2.70
2024-01-15T16:23:27.118Z,2.63
2024-01-15T16:23:59.985Z,2.78
2024-01-15T16:26:31.442Z,3.65
2024-01-15T16:29:33.292Z,3.17
2024-01-15T16:32:35.373Z,2.85
2024-01-15T16:35:37.340Z,2.90
2024-01-15T16:38:39.482Z,2.75
2024-01-15T16:41:41.363Z,3.08
2024-01-15T16:44:43.138Z,2.67
2024-01-15T16:47:44.932Z,3.60
2024-01-15T16:50:46.884Z,3.15
2024-01-15T16:53:48.633Z,3.00
2024-01-15T16:56:50.832Z,2.90
2024-01-15T16:59:52.576Z,2.40
2024-01-15T17:02:54.845Z,2.80
2024-01-15T17:05:56.504Z,2.72
2024-01-15T17:08:58.428Z,2.97
2024-01-15T17:12:00.174Z,3.00
2024-01-15T17:15:01.883Z,3.30
2024-01-15T17:18:04.530Z,4.40
2024-01-15T17:21:07.133Z,5.63
2024-01-15T17:24:08.932Z,4.00
2024-01-15T17:27:10.586Z,5.85
2024-01-15T17:30:12.818Z,4.95
2024-01-15T17:33:15.003Z,4.35
2024-01-15T17:36:16.819Z,3.70
2024-01-15T17:39:19.221Z,3.80
2024-01-15T17:42:20.907Z,4.15
2024-01-15T17:45:22.961Z,4.40
2024-01-15T17:48:26.060Z,4.85
2024-01-15T17:51:27.815Z,4.80
2024-01-15T17:54:31.232Z,4.38
2024-01-15T17:57:32.886Z,5.18
2024-01-15T18:00:35.179Z,4.28
2024-01-15T18:03:36.944Z,5.10
2024-01-15T18:06:38.745Z,4.88
2024-01-15T18:09:40.578Z,3.90
2024-01-15T18:12:42.312Z,4.13
2024-01-15T18:15:43.970Z,3.83
2024-01-15T18:18:46.394Z,3.55
2024-01-15T18:21:48.696Z,3.58
2024-01-15T18:24:50.460Z,2.95
2024-01-15T18:27:52.260Z,2.67
2024-01-15T18:30:53.987Z,3.20
2024-01-15T18:33:55.875Z,3.05
2024-01-15T18:36:57.586Z,2.72
2024-01-15T18:39:59.246Z,3.60
2024-01-15T18:43:01.489Z,3.50
2024-01-15T18:46:08.784Z,4.07
2024-01-15T18:49:11.556Z,4.97
2024-01-15T18:52:13.301Z,5.70
2024-01-15T18:55:15.257Z,4.95
2024-01-15T18:58:17.797Z,5.50
2024-01-15T19:01:30.569Z,4.70
2024-01-15T19:04:32.329Z,5.70
2024-01-15T19:07:34.372Z,4.47
2024-01-15T19:10:36.289Z,5.82
2024-01-15T19:13:38.297Z,4.40
2024-01-15T19:16:40.040Z,4.50
2024-01-15T19:19:42.291Z,4.65
2024-01-15T19:22:43.979Z,4.32
2024-01-15T19:25:45.954Z,4.40
2024-01-15T19:28:48.629Z,3.70
2024-01-15T19:31:50.430Z,4.30
2024-01-15T19:34:52.748Z,4.60
2024-01-15T19:37:54.479Z,4.15
2024-01-15T19:40:56.085Z,4.75
2024-01-15T19:43:57.855Z,4.28
2024-01-15T19:46:59.644Z,4.35
2024-01-15T19:50:01.336Z,4.30
2024-01-15T19:53:03.137Z,4.00
2024-01-15T19:56:05.105Z,4.30
2024-01-15T19:59:07.227Z,3.55
2024-01-15T20:02:08.981Z,3.95
2024-01-15T20:05:11.362Z,3.72
2024-01-15T20:08:13.220Z,4.50
2024-01-15T20:11:15.225Z,3.90
2024-01-15T20:14:17.038Z,3.58
2024-01-15T20:17:18.932Z,4.10
2024-01-15T20:20:20.927Z,4.13
2024-01-15T20:23:22.725Z,5.78
2024-01-15T20:26:25.463Z,4.40
2024-01-15T20:29:27.225Z,5.38
2024-01-15T20:32:29.031Z,5.22
2024-01-15T20:35:30.825Z,4.20
2024-01-15T20:38:33.047Z,6.03
2024-01-15T20:41:35.082Z,3.60
2024-01-15T20:44:36.864Z,4.60
2024-01-15T20:47:39.061Z,3.83
2024-01-15T20:50:40.825Z,3.25
2024-01-15T20:53:43.350Z,4.95
2024-01-15T20:56:45.507Z,4.18
2024-01-15T20:59:50.411Z,3.15
2024-01-15T21:02:53.897Z,3.40
2024-01-15T21:05:55.758Z,3.42
2024-01-15T21:08:57.525Z,3.80
2024-01-15T21:11:59.187Z,2.78
2024-01-15T21:15:01.101Z,2.80
2024-01-15T21:18:04.708Z,3.17
2024-01-15T21:21:06.855Z,3.25
2024-01-15T21:24:09.422Z,4.25
2024-01-15T21:27:11.368Z,3.42
2024-01-15T21:30:15.871Z,3.20
2024-01-15T21:33:17.698Z,3.45
2024-01-15T21:36:19.402Z,3.83
2024-01-15T21:39:21.162Z,4.15
2024-01-15T21:42:22.872Z,5.30
2024-01-15T21:45:24.572Z,6.53
2024-01-15T21:48:26.577Z,5.40
2024-01-15T21:51:28.552Z,4.88
2024-01-15T21:54:30.261Z,3.85
2024-01-15T21:57:32.208Z,3.33
2024-01-15T22:00:35.193Z,3.20
2024-01-15T22:03:37.230Z,2.65
2024-01-15T22:06:39.057Z,3.22
2024-01-15T22:09:41.641Z,2.75
2024-01-15T22:12:43.343Z,2.65
2024-01-15T22:15:45.085Z,3.25
2024-01-15T22:18:48.107Z,3.50
2024-01-15T22:21:50.352Z,3.20
2024-01-15T22:24:52.195Z,2.83
2024-01-15T22:27:54.061Z,3.58
2024-01-15T22:30:55.741Z,3.40
2024-01-15T22:33:57.546Z,3.20
2024-01-15T22:36:59.556Z,3.83
2024-01-15T22:40:01.294Z,3.30
2024-01-15T22:43:03.326Z,2.78
2024-01-15T22:46:05.323Z,3.42
2024-01-15T22:49:07.215Z,3.00
2024-01-15T22:52:09.517Z,3.13
2024-01-15T22:55:11.781Z,2.72
2024-01-15T22:58:13.592Z,3.10
2024-01-15T23:01:15.332Z,3.38
2024-01-15T23:04:17.184Z,3.58
2024-01-15T23:07:18.965Z,3.13
2024-01-15T23:10:20.939Z,3.45
2024-01-15T23:13:22.913Z,3.10
2024-01-15T23:16:24.906Z,3.13
2024-01-15T23:19:26.640Z,3.20
2024-01-15T23:22:28.344Z,3.35
2024-01-15T23:25:30.012Z,3.65
2024-01-15T23:28:32.880Z,2.92
2024-01-15T23:31:34.766Z,2.90
2024-01-15T23:34:36.738Z,2.75
2024-01-15T23:37:39.359Z,2.60
2024-01-15T23:40:41.080Z,3.05
2024-01-15T23:43:42.833Z,2.40
2024-01-15T23:46:44.488Z,2.70
2024-01-15T23:49:46.239Z,2.88
2024-01-15T23:52:47.908Z,2.38
2024-01-15T23:55:49.669Z,2.45
2024-01-15T23:58:51.372Z,2.95
